General Piran, Argentina
Current Conditions -  °F | °C
As of 3:00 AM on Thursday 23 Oct 2014 (Local Time) from SAZM Reporting Station
Broken Clouds Broken Clouds  
Wind Chill: 15°   Ceiling: 8000
Heat Index: 15°   Visibility: 6mi
Dew Point:   Wind: 14mph
Humidity: 67%   Direction: 160°SSE
Pressure: 30.06"   Gusts: NA
Location:  37.28°S, 57.79°W
Report Text: SAZM 230600Z 16012KT 9999 SCT030 BKN08015/09 Q1018
Loading
Personal Weather Stations






























Interactive Weather Map
Tropical Storm Tracking
New forecast layout! Learn more

10-Day Weather Forecast

Advertisements
Track Severe Weather on mobile